Time;durP1;ratioP1;P1;durP2;ratioP2;P2;SDS_P1;SDS_P2;PMS_P1;PMS_P2;Temp;Humidity;BMP_temperature;BMP_pressure;BME280_temperature;BME280_humidity;BME280_pressure;Samples;Min_cycle;Max_cycle;Signal;HPM_P1;HPM_P2
2023/08/31 00:01:33;;;;;;;2.73;2.53;;;;;;;;;;6217625;23;20487;-60
2023/08/31 00:04:00;;;;;;;2.83;2.70;;;;;;;;;;6217391;23;20409;-59
2023/08/31 00:06:29;;;;;;;2.57;2.37;;;;;;;;;;6217408;23;20393;-60
2023/08/31 00:08:57;;;;;;;2.83;2.63;;;;;;;;;;6217340;23;20571;-59
2023/08/31 00:11:25;;;;;;;2.77;2.67;;;;;;;;;;6217466;23;20447;-60
2023/08/31 00:13:52;;;;;;;2.70;2.50;;;;;;;;;;6217190;23;20721;-60
2023/08/31 00:16:25;;;;;;;2.80;2.70;;;;;;;;;;6217479;23;20405;-60
2023/08/31 00:18:52;;;;;;;2.40;2.20;;;;;;;;;;6227283;23;20400;-60
2023/08/31 00:21:19;;;;;;;5.00;2.67;;;;;;;;;;6216984;23;20969;-60
2023/08/31 00:23:48;;;;;;;4.80;2.37;;;;;;;;;;6217210;23;20496;-60
2023/08/31 00:26:15;;;;;;;3.00;2.80;;;;;;;;;;6217222;23;20405;-60
2023/08/31 00:28:42;;;;;;;3.10;2.80;;;;;;;;;;6217187;23;20468;-60
2023/08/31 00:31:09;;;;;;;2.80;2.60;;;;;;;;;;6217275;23;20397;-60
2023/08/31 00:33:36;;;;;;;2.97;2.77;;;;;;;;;;6217221;23;20485;-60
2023/08/31 00:36:03;;;;;;;2.50;2.40;;;;;;;;;;6217256;23;20768;-60
2023/08/31 00:38:30;;;;;;;2.80;2.70;;;;;;;;;;6217179;23;20405;-60
2023/08/31 00:40:59;;;;;;;2.83;2.63;;;;;;;;;;6217155;23;20429;-60
2023/08/31 00:43:26;;;;;;;2.97;2.80;;;;;;;;;;6216945;23;20401;-60
2023/08/31 00:45:54;;;;;;;3.07;2.97;;;;;;;;;;6216806;23;20495;-60
2023/08/31 00:48:21;;;;;;;3.23;3.03;;;;;;;;;;6216930;23;20437;-60
2023/08/31 00:50:48;;;;;;;3.60;3.40;;;;;;;;;;6217127;23;20456;-60
2023/08/31 00:53:15;;;;;;;3.47;3.10;;;;;;;;;;6216673;23;20513;-61
2023/08/31 00:55:43;;;;;;;3.20;2.90;;;;;;;;;;6217039;23;20417;-59
2023/08/31 00:58:11;;;;;;;2.63;2.53;;;;;;;;;;6216964;23;20491;-60
2023/08/31 01:00:48;;;;;;;3.23;3.00;;;;;;;;;;6216934;23;20581;-60
2023/08/31 01:03:18;;;;;;;3.97;3.67;;;;;;;;;;6226737;23;20390;-59
2023/08/31 01:05:48;;;;;;;3.27;2.77;;;;;;;;;;6216756;23;20439;-60
2023/08/31 01:08:23;;;;;;;2.90;2.70;;;;;;;;;;6226824;23;20783;-60
2023/08/31 01:10:55;;;;;;;3.40;3.20;;;;;;;;;;6226849;23;20397;-59
2023/08/31 01:13:25;;;;;;;3.40;3.20;;;;;;;;;;6226352;23;20421;-60
2023/08/31 01:15:53;;;;;;;3.60;3.30;;;;;;;;;;6226743;23;20447;-60
2023/08/31 01:18:24;;;;;;;4.00;3.80;;;;;;;;;;6216733;23;20405;-60
2023/08/31 01:20:54;;;;;;;4.07;3.30;;;;;;;;;;6226692;23;20420;-60
2023/08/31 01:23:21;;;;;;;3.53;3.33;;;;;;;;;;6216485;23;20432;-60
2023/08/31 01:25:50;;;;;;;3.30;3.10;;;;;;;;;;6216324;23;20412;-60
2023/08/31 01:28:17;;;;;;;3.07;2.80;;;;;;;;;;6216503;23;20583;-60
2023/08/31 01:30:44;;;;;;;3.90;3.70;;;;;;;;;;6216754;23;20784;-60
2023/08/31 01:33:12;;;;;;;3.80;3.60;;;;;;;;;;6216573;23;20406;-60
2023/08/31 01:35:42;;;;;;;3.97;3.50;;;;;;;;;;6216636;23;20406;-60
2023/08/31 01:38:10;;;;;;;3.40;3.20;;;;;;;;;;6216373;23;20402;-60
2023/08/31 01:40:38;;;;;;;3.30;3.10;;;;;;;;;;6216583;23;20488;-59
2023/08/31 01:43:07;;;;;;;4.50;4.20;;;;;;;;;;6216296;23;20440;-60
2023/08/31 01:45:35;;;;;;;3.70;3.50;;;;;;;;;;6216350;23;20531;-60
2023/08/31 01:48:02;;;;;;;3.50;3.30;;;;;;;;;;6216428;23;20519;-60
2023/08/31 01:50:29;;;;;;;3.57;3.37;;;;;;;;;;6216517;23;20488;-60
2023/08/31 01:52:56;;;;;;;3.50;3.30;;;;;;;;;;6216080;23;20512;-59
2023/08/31 01:55:23;;;;;;;3.53;3.33;;;;;;;;;;6216041;23;20900;-60
2023/08/31 01:57:50;;;;;;;3.50;3.30;;;;;;;;;;6216218;23;20491;-60
2023/08/31 02:00:19;;;;;;;3.77;3.50;;;;;;;;;;6216443;23;20405;-60
2023/08/31 02:02:46;;;;;;;3.30;3.10;;;;;;;;;;6216480;23;20440;-60
2023/08/31 02:05:13;;;;;;;3.60;3.37;;;;;;;;;;6216361;23;20496;-59
2023/08/31 02:07:40;;;;;;;3.50;3.30;;;;;;;;;;6216265;23;20540;-60
2023/08/31 02:10:08;;;;;;;3.23;3.03;;;;;;;;;;6215916;23;20920;-59
2023/08/31 02:12:36;;;;;;;3.30;2.80;;;;;;;;;;6216258;23;20484;-60
2023/08/31 02:15:03;;;;;;;3.40;3.10;;;;;;;;;;6216225;23;20444;-60
2023/08/31 02:17:31;;;;;;;3.67;3.47;;;;;;;;;;6216212;23;20500;-60
2023/08/31 02:19:59;;;;;;;3.50;3.20;;;;;;;;;;6216195;23;20488;-60
2023/08/31 02:22:25;;;;;;;4.17;2.83;;;;;;;;;;6215808;23;20901;-60
2023/08/31 02:24:53;;;;;;;2.97;2.87;;;;;;;;;;6216055;23;20500;-60
2023/08/31 02:27:20;;;;;;;3.50;3.30;;;;;;;;;;6216111;23;20405;-60
2023/08/31 02:29:46;;;;;;;3.13;2.93;;;;;;;;;;6216053;23;20506;-60
2023/08/31 02:32:13;;;;;;;3.07;2.87;;;;;;;;;;6216202;23;20440;-60
2023/08/31 02:34:42;;;;;;;3.07;2.87;;;;;;;;;;6216054;23;20965;-60
2023/08/31 02:37:08;;;;;;;3.23;2.93;;;;;;;;;;6216039;23;20786;-60
2023/08/31 02:39:35;;;;;;;3.00;2.80;;;;;;;;;;6216104;23;20483;-60
2023/08/31 02:42:02;;;;;;;2.70;2.50;;;;;;;;;;6216054;23;20488;-60
2023/08/31 02:44:29;;;;;;;2.77;2.67;;;;;;;;;;6215923;23;20451;-60
2023/08/31 02:46:56;;;;;;;2.90;2.70;;;;;;;;;;6216414;23;20401;-60
2023/08/31 02:49:23;;;;;;;4.50;2.80;;;;;;;;;;6216003;23;20831;-60
2023/08/31 02:51:51;;;;;;;2.90;2.70;;;;;;;;;;6215986;23;20488;-60
2023/08/31 02:54:19;;;;;;;3.20;3.00;;;;;;;;;;6215648;23;20520;-60
2023/08/31 02:56:46;;;;;;;2.90;2.70;;;;;;;;;;6216040;23;20413;-60
2023/08/31 02:59:13;;;;;;;2.30;2.20;;;;;;;;;;6215947;23;20415;-60
2023/08/31 03:01:40;;;;;;;2.53;2.33;;;;;;;;;;6216236;23;20484;-60
2023/08/31 03:04:07;;;;;;;2.97;2.77;;;;;;;;;;6215859;23;20447;-61
2023/08/31 03:06:34;;;;;;;2.50;2.30;;;;;;;;;;6215931;23;20460;-60
2023/08/31 03:09:03;;;;;;;2.23;2.10;;;;;;;;;;6216374;23;20528;-60
2023/08/31 03:11:31;;;;;;;2.53;2.33;;;;;;;;;;6217751;23;20412;-60
2023/08/31 03:13:58;;;;;;;1.97;1.77;;;;;;;;;;6218116;23;20806;-60
2023/08/31 03:16:25;;;;;;;2.17;1.70;;;;;;;;;;6217923;23;20492;-60
2023/08/31 03:18:52;;;;;;;1.90;1.80;;;;;;;;;;6217568;23;20435;-60
2023/08/31 03:21:19;;;;;;;2.60;2.40;;;;;;;;;;6217610;23;20436;-59
2023/08/31 03:23:46;;;;;;;2.53;2.07;;;;;;;;;;6217492;23;20749;-60
2023/08/31 03:26:14;;;;;;;2.20;2.10;;;;;;;;;;6217453;23;20492;-60
2023/08/31 03:28:41;;;;;;;1.90;1.70;;;;;;;;;;6217273;23;20460;-60
2023/08/31 03:31:08;;;;;;;3.07;2.30;;;;;;;;;;6217500;23;20437;-60
2023/08/31 03:33:35;;;;;;;2.03;1.93;;;;;;;;;;6217424;23;20404;-60
2023/08/31 03:36:04;;;;;;;2.57;2.37;;;;;;;;;;6217459;23;20464;-60
2023/08/31 03:38:31;;;;;;;2.20;2.10;;;;;;;;;;6217355;23;20409;-60
2023/08/31 03:40:58;;;;;;;2.63;2.30;;;;;;;;;;6217414;23;20439;-59
2023/08/31 03:43:26;;;;;;;2.10;2.00;;;;;;;;;;6217329;23;20443;-59
2023/08/31 03:45:56;;;;;;;2.10;2.00;;;;;;;;;;6217175;23;20436;-60
2023/08/31 03:48:23;;;;;;;2.30;2.20;;;;;;;;;;6227092;23;20432;-60
2023/08/31 03:50:50;;;;;;;2.33;1.80;;;;;;;;;;6216897;23;20434;-60
2023/08/31 03:53:17;;;;;;;2.13;2.03;;;;;;;;;;6216920;23;20433;-60
2023/08/31 03:55:44;;;;;;;1.87;1.77;;;;;;;;;;6217338;23;20471;-60
2023/08/31 03:58:11;;;;;;;2.57;2.37;;;;;;;;;;6217150;23;20492;-60
2023/08/31 04:00:39;;;;;;;2.10;1.93;;;;;;;;;;6217253;23;20899;-60
2023/08/31 04:03:06;;;;;;;2.43;2.23;;;;;;;;;;6217077;23;20527;-59
2023/08/31 04:05:34;;;;;;;2.17;1.97;;;;;;;;;;6217147;23;20440;-60
2023/08/31 04:08:01;;;;;;;2.80;1.70;;;;;;;;;;6217059;23;20411;-60
2023/08/31 04:10:29;;;;;;;2.33;1.90;;;;;;;;;;6217096;23;20773;-60
2023/08/31 04:12:56;;;;;;;1.90;1.80;;;;;;;;;;6216821;23;20412;-60
2023/08/31 04:15:23;;;;;;;2.30;2.10;;;;;;;;;;6217039;23;20488;-60
2023/08/31 04:17:51;;;;;;;2.10;2.00;;;;;;;;;;6217006;23;20520;-60
2023/08/31 04:20:19;;;;;;;2.93;2.67;;;;;;;;;;6216835;23;20460;-60
2023/08/31 04:22:46;;;;;;;3.03;2.50;;;;;;;;;;6217016;23;20405;-60
2023/08/31 04:25:13;;;;;;;2.47;2.27;;;;;;;;;;6216926;23;20804;-60
2023/08/31 04:27:40;;;;;;;3.23;2.43;;;;;;;;;;6216876;23;20439;-60
2023/08/31 04:30:07;;;;;;;2.80;2.40;;;;;;;;;;6216827;23;20463;-60
2023/08/31 04:32:35;;;;;;;1.97;1.87;;;;;;;;;;6216767;23;20825;-60
2023/08/31 04:35:03;;;;;;;2.53;2.33;;;;;;;;;;6216884;23;20405;-60
2023/08/31 04:37:30;;;;;;;2.23;2.13;;;;;;;;;;6216341;23;20896;-59
2023/08/31 04:39:57;;;;;;;2.70;2.43;;;;;;;;;;6216824;23;20497;-59
2023/08/31 04:42:24;;;;;;;2.53;2.43;;;;;;;;;;6216863;23;20428;-60
2023/08/31 04:44:51;;;;;;;5.47;3.13;;;;;;;;;;6216662;23;20492;-59
2023/08/31 04:47:18;;;;;;;5.73;2.57;;;;;;;;;;6216718;23;20788;-59
2023/08/31 04:49:45;;;;;;;2.67;2.47;;;;;;;;;;6216558;23;20536;-59
2023/08/31 04:52:13;;;;;;;2.70;2.57;;;;;;;;;;6216393;23;20476;-60
2023/08/31 04:54:40;;;;;;;3.10;2.83;;;;;;;;;;6226537;23;20476;-59
2023/08/31 04:57:07;;;;;;;2.37;2.17;;;;;;;;;;6216654;23;20806;-60
2023/08/31 04:59:34;;;;;;;2.50;2.40;;;;;;;;;;6216855;23;20405;-60
2023/08/31 05:02:01;;;;;;;2.63;2.43;;;;;;;;;;6216583;23;20452;-59
2023/08/31 05:04:29;;;;;;;2.73;2.63;;;;;;;;;;6216723;23;20496;-59
2023/08/31 05:06:56;;;;;;;3.60;2.67;;;;;;;;;;6216504;23;20409;-60
2023/08/31 05:09:25;;;;;;;2.40;2.20;;;;;;;;;;6216647;23;20511;-59
2023/08/31 05:11:52;;;;;;;2.50;2.30;;;;;;;;;;6216364;23;20770;-59
2023/08/31 05:14:19;;;;;;;3.10;2.80;;;;;;;;;;6216381;23;20493;-60
2023/08/31 05:16:47;;;;;;;2.70;2.50;;;;;;;;;;6216320;23;20912;-59
2023/08/31 05:19:14;;;;;;;4.37;3.00;;;;;;;;;;6216466;23;20415;-59
2023/08/31 05:21:41;;;;;;;2.77;2.57;;;;;;;;;;6215944;23;20401;-60
2023/08/31 05:24:07;;;;;;;3.00;2.80;;;;;;;;;;6216122;23;20456;-60
2023/08/31 05:26:36;;;;;;;3.40;3.10;;;;;;;;;;6216306;23;20441;-59
2023/08/31 05:29:04;;;;;;;3.20;3.00;;;;;;;;;;6216140;23;20870;-60
2023/08/31 05:31:31;;;;;;;3.37;3.17;;;;;;;;;;6215719;23;20406;-60
2023/08/31 05:33:59;;;;;;;4.10;3.13;;;;;;;;;;6216226;23;20908;-60
2023/08/31 05:36:25;;;;;;;3.00;2.80;;;;;;;;;;6216135;23;20491;-60
2023/08/31 05:38:52;;;;;;;3.27;3.07;;;;;;;;;;6216152;23;20492;-60
2023/08/31 05:41:20;;;;;;;3.70;3.40;;;;;;;;;;6216146;23;20487;-60
2023/08/31 05:43:49;;;;;;;8.60;3.37;;;;;;;;;;6215919;23;20405;-60
2023/08/31 05:46:15;;;;;;;3.00;2.80;;;;;;;;;;6215918;23;20943;-60
2023/08/31 05:48:42;;;;;;;4.63;4.23;;;;;;;;;;6215989;23;20504;-60
2023/08/31 05:51:09;;;;;;;3.10;2.80;;;;;;;;;;6216005;23;20492;-60
2023/08/31 05:53:37;;;;;;;3.00;2.80;;;;;;;;;;6215551;23;20444;-60
2023/08/31 05:56:04;;;;;;;3.43;3.10;;;;;;;;;;6225361;23;20928;-60
2023/08/31 05:58:32;;;;;;;3.70;3.50;;;;;;;;;;6215864;23;20405;-59
2023/08/31 06:01:00;;;;;;;3.10;2.90;;;;;;;;;;6215885;23;20412;-59
2023/08/31 06:03:28;;;;;;;3.50;3.23;;;;;;;;;;6216105;23;20496;-59
2023/08/31 06:05:55;;;;;;;5.97;3.63;;;;;;;;;;6215708;23;20463;-60
2023/08/31 06:08:22;;;;;;;3.80;3.50;;;;;;;;;;6215945;23;20718;-60
2023/08/31 06:10:49;;;;;;;4.13;3.73;;;;;;;;;;6215482;23;21023;-60
2023/08/31 06:13:16;;;;;;;3.47;3.23;;;;;;;;;;6215824;23;20409;-59
2023/08/31 06:15:44;;;;;;;4.20;3.90;;;;;;;;;;6215746;23;20489;-60
2023/08/31 06:18:12;;;;;;;4.10;3.70;;;;;;;;;;6215347;23;20893;-60
2023/08/31 06:20:39;;;;;;;3.83;3.63;;;;;;;;;;6215848;23;20435;-60
2023/08/31 06:23:06;;;;;;;4.33;3.93;;;;;;;;;;6215644;23;20488;-60
2023/08/31 06:25:33;;;;;;;3.87;3.30;;;;;;;;;;6215416;23;20966;-59
2023/08/31 06:28:00;;;;;;;4.00;3.70;;;;;;;;;;6215759;23;20488;-59
2023/08/31 06:30:27;;;;;;;2.80;2.70;;;;;;;;;;6215561;23;20444;-60
2023/08/31 06:32:54;;;;;;;3.60;3.30;;;;;;;;;;6215564;23;20411;-60
2023/08/31 06:35:23;;;;;;;4.20;3.90;;;;;;;;;;6215919;23;20488;-60
2023/08/31 06:37:51;;;;;;;3.87;3.57;;;;;;;;;;6215362;23;20411;-60
2023/08/31 06:40:18;;;;;;;4.07;3.70;;;;;;;;;;6215642;23;20406;-60
2023/08/31 06:42:44;;;;;;;3.30;3.10;;;;;;;;;;6215442;23;20409;-59
2023/08/31 06:45:11;;;;;;;3.60;3.40;;;;;;;;;;6215396;23;20500;-60
2023/08/31 06:47:38;;;;;;;4.30;3.90;;;;;;;;;;6215786;23;20480;-60
2023/08/31 06:50:06;;;;;;;4.50;4.10;;;;;;;;;;6215483;23;20448;-60
2023/08/31 06:52:34;;;;;;;4.77;4.47;;;;;;;;;;6214719;23;20429;-60
2023/08/31 06:55:03;;;;;;;4.00;3.70;;;;;;;;;;6225077;23;20397;-59
2023/08/31 06:57:29;;;;;;;4.47;4.07;;;;;;;;;;6212552;23;20413;-59
2023/08/31 06:59:56;;;;;;;4.10;3.80;;;;;;;;;;6214931;23;20488;-60
2023/08/31 07:02:24;;;;;;;6.27;4.67;;;;;;;;;;6214659;23;20404;-59
2023/08/31 07:04:52;;;;;;;4.27;3.90;;;;;;;;;;6214887;23;20432;-59
2023/08/31 07:07:18;;;;;;;4.67;4.23;;;;;;;;;;6215425;23;20423;-59
2023/08/31 07:09:48;;;;;;;4.13;3.90;;;;;;;;;;6214715;23;20964;-63
2023/08/31 07:12:14;;;;;;;4.10;3.77;;;;;;;;;;6214755;23;20440;-62
2023/08/31 07:14:41;;;;;;;6.10;4.57;;;;;;;;;;6215147;23;20480;-63
2023/08/31 07:17:08;;;;;;;4.70;4.37;;;;;;;;;;6214626;23;20487;-61
2023/08/31 07:19:37;;;;;;;4.30;4.00;;;;;;;;;;6214222;23;20470;-60
2023/08/31 07:22:06;;;;;;;4.20;3.90;;;;;;;;;;6215021;23;20417;-71
2023/08/31 07:24:34;;;;;;;7.30;3.83;;;;;;;;;;6215063;23;20484;-60
2023/08/31 07:27:02;;;;;;;4.23;3.83;;;;;;;;;;6214045;23;20463;-62
2023/08/31 07:29:29;;;;;;;4.93;3.80;;;;;;;;;;6214787;23;20437;-60
2023/08/31 07:31:56;;;;;;;4.10;3.80;;;;;;;;;;6215314;23;20499;-60
2023/08/31 07:34:23;;;;;;;5.63;4.87;;;;;;;;;;6215209;23;20778;-59
2023/08/31 07:36:50;;;;;;;3.97;3.67;;;;;;;;;;6215426;23;20698;-59
2023/08/31 07:39:18;;;;;;;4.90;4.43;;;;;;;;;;6215141;23;20528;-59
2023/08/31 07:41:44;;;;;;;5.00;4.37;;;;;;;;;;6215231;23;20408;-63
2023/08/31 07:44:13;;;;;;;4.43;4.03;;;;;;;;;;6215241;23;20488;-68
2023/08/31 07:46:40;;;;;;;4.60;4.30;;;;;;;;;;6215217;23;20405;-63
2023/08/31 07:49:07;;;;;;;5.70;4.77;;;;;;;;;;6214872;23;20492;-67
2023/08/31 07:51:34;;;;;;;8.90;4.40;;;;;;;;;;6215244;23;20409;-61
2023/08/31 07:54:03;;;;;;;5.47;5.03;;;;;;;;;;6214764;23;20429;-61
2023/08/31 07:56:30;;;;;;;5.80;5.30;;;;;;;;;;6216384;23;20899;-66
2023/08/31 07:58:56;;;;;;;5.43;5.00;;;;;;;;;;6216892;23;20405;-66
2023/08/31 08:01:25;;;;;;;11.43;6.07;;;;;;;;;;6216682;23;20496;-62
2023/08/31 08:03:52;;;;;;;5.67;5.10;;;;;;;;;;6215569;23;20488;-65
2023/08/31 08:06:19;;;;;;;8.80;5.77;;;;;;;;;;6217263;23;20428;-65
2023/08/31 08:08:45;;;;;;;5.40;5.00;;;;;;;;;;6216811;23;20776;-62
2023/08/31 08:11:12;;;;;;;6.23;4.60;;;;;;;;;;6215906;23;20444;-64
2023/08/31 08:13:39;;;;;;;6.57;4.60;;;;;;;;;;6216237;23;20483;-61
2023/08/31 08:16:07;;;;;;;4.30;3.93;;;;;;;;;;6216813;23;20491;-59
2023/08/31 08:18:36;;;;;;;4.67;4.23;;;;;;;;;;6216162;23;20485;-62
2023/08/31 08:21:03;;;;;;;5.07;4.50;;;;;;;;;;6216237;23;20492;-64
2023/08/31 08:23:30;;;;;;;5.10;4.17;;;;;;;;;;6216668;23;20463;-58
2023/08/31 08:25:59;;;;;;;4.87;4.57;;;;;;;;;;6216637;23;20491;-61
2023/08/31 08:28:26;;;;;;;7.80;4.20;;;;;;;;;;6216208;23;20776;-60
2023/08/31 08:30:55;;;;;;;3.60;3.30;;;;;;;;;;6216529;23;20468;-61
2023/08/31 08:33:22;;;;;;;5.77;3.47;;;;;;;;;;6216539;23;20429;-61
2023/08/31 08:35:50;;;;;;;4.10;3.77;;;;;;;;;;6216492;23;20412;-59
2023/08/31 08:38:17;;;;;;;3.50;3.20;;;;;;;;;;6216741;23;20825;-68
2023/08/31 08:40:44;;;;;;;3.83;3.43;;;;;;;;;;6216724;23;20444;-68
2023/08/31 08:43:12;;;;;;;3.33;3.13;;;;;;;;;;6216814;23;20495;-68
2023/08/31 08:45:41;;;;;;;4.00;3.70;;;;;;;;;;6216473;23;20492;-67
2023/08/31 08:48:08;;;;;;;4.10;3.50;;;;;;;;;;6216190;23;20885;-72
2023/08/31 08:50:36;;;;;;;3.93;3.33;;;;;;;;;;6216382;23;20495;-59
2023/08/31 08:53:05;;;;;;;2.47;2.27;;;;;;;;;;6216032;23;20737;-60
2023/08/31 08:55:32;;;;;;;3.57;3.10;;;;;;;;;;6216433;23;20401;-59
2023/08/31 08:57:59;;;;;;;2.50;2.40;;;;;;;;;;6216342;23;20487;-61
2023/08/31 09:00:27;;;;;;;2.57;2.37;;;;;;;;;;6216030;23;20922;-61
2023/08/31 09:02:54;;;;;;;2.50;2.27;;;;;;;;;;6216289;23;20439;-59
2023/08/31 09:05:21;;;;;;;2.20;2.10;;;;;;;;;;6216384;23;20456;-59
2023/08/31 09:08:06;;;;;;;2.67;2.47;;;;;;;;;;6215577;23;20960;-58
2023/08/31 09:10:37;;;;;;;2.40;2.30;;;;;;;;;;6225907;23;20456;-59
2023/08/31 09:13:07;;;;;;;3.60;2.50;;;;;;;;;;6216150;23;20440;-59
2023/08/31 09:15:37;;;;;;;2.40;1.93;;;;;;;;;;6216181;23;20404;-59
2023/08/31 09:18:05;;;;;;;5.60;2.60;;;;;;;;;;6216371;23;20720;-59
2023/08/31 09:20:32;;;;;;;2.80;2.20;;;;;;;;;;6216071;23;20893;-59
2023/08/31 09:22:59;;;;;;;7.10;2.50;;;;;;;;;;6216058;23;20408;-59
2023/08/31 09:25:27;;;;;;;2.77;2.57;;;;;;;;;;6216149;23;20492;-59
2023/08/31 09:27:54;;;;;;;1.77;1.67;;;;;;;;;;6216040;23;20447;-59
2023/08/31 09:30:21;;;;;;;2.13;1.93;;;;;;;;;;6216095;23;20532;-59
2023/08/31 09:32:53;;;;;;;3.03;1.80;;;;;;;;;;6216008;23;20810;-62
2023/08/31 09:35:20;;;;;;;7.33;2.00;;;;;;;;;;6225942;23;20397;-61
2023/08/31 09:37:57;;;;;;;2.40;1.67;;;;;;;;;;6215948;23;20787;-60
2023/08/31 09:40:23;;;;;;;2.10;1.53;;;;;;;;;;6225418;23;20401;-60
2023/08/31 09:42:53;;;;;;;3.33;1.63;;;;;;;;;;6214439;23;20484;-59
2023/08/31 09:45:20;;;;;;;1.90;1.50;;;;;;;;;;6215677;23;20433;-59
2023/08/31 09:47:46;;;;;;;3.30;2.00;;;;;;;;;;6215406;23;20936;-63
2023/08/31 09:50:13;;;;;;;2.63;1.30;;;;;;;;;;6215562;23;20508;-54
2023/08/31 09:52:44;;;;;;;2.03;1.40;;;;;;;;;;6215279;23;20512;-56
2023/08/31 09:55:12;;;;;;;4.30;1.67;;;;;;;;;;6225789;23;20393;-59
2023/08/31 09:57:40;;;;;;;3.30;1.47;;;;;;;;;;6215297;23;20885;-59
2023/08/31 10:00:09;;;;;;;2.13;1.50;;;;;;;;;;6216205;23;20771;-59
2023/08/31 10:02:36;;;;;;;1.73;1.20;;;;;;;;;;6215744;23;20791;-62
2023/08/31 10:05:04;;;;;;;3.60;2.00;;;;;;;;;;6215684;23;20488;-63
2023/08/31 10:07:31;;;;;;;1.60;1.47;;;;;;;;;;6215453;23;20699;-64
2023/08/31 10:09:58;;;;;;;1.90;1.50;;;;;;;;;;6215153;23;20491;-62
2023/08/31 10:12:26;;;;;;;2.80;1.20;;;;;;;;;;6215653;23;20495;-63
2023/08/31 10:14:53;;;;;;;1.50;1.33;;;;;;;;;;6215712;23;20416;-64
2023/08/31 10:17:22;;;;;;;2.40;1.57;;;;;;;;;;6215565;23;20424;-63
2023/08/31 10:19:49;;;;;;;3.33;1.53;;;;;;;;;;6215472;23;20437;-60
2023/08/31 10:22:16;;;;;;;3.47;1.23;;;;;;;;;;6215913;23;20412;-70
2023/08/31 10:24:58;;;;;;;4.20;1.37;;;;;;;;;;6215714;23;20412;-59
2023/08/31 10:27:26;;;;;;;2.83;1.57;;;;;;;;;;6215637;23;20416;-60
2023/08/31 10:29:53;;;;;;;1.40;1.17;;;;;;;;;;6215380;23;20443;-59
2023/08/31 10:32:22;;;;;;;1.27;1.17;;;;;;;;;;6215747;23;20405;-60
2023/08/31 10:35:04;;;;;;;2.60;1.13;;;;;;;;;;6215486;23;20411;-61
2023/08/31 10:37:31;;;;;;;2.60;1.47;;;;;;;;;;6225528;23;20420;-62
2023/08/31 10:40:08;;;;;;;1.47;1.37;;;;;;;;;;6215524;23;20436;-61
2023/08/31 10:42:42;;;;;;;1.47;1.37;;;;;;;;;;6225179;23;20393;-61
2023/08/31 10:45:09;;;;;;;2.47;1.33;;;;;;;;;;6225237;23;20396;-61
2023/08/31 10:47:41;;;;;;;2.60;1.30;;;;;;;;;;6215451;23;20774;-67
2023/08/31 10:50:17;;;;;;;1.50;1.20;;;;;;;;;;6215257;23;20483;-79
2023/08/31 10:52:45;;;;;;;1.53;1.20;;;;;;;;;;6214867;23;20456;-66
2023/08/31 10:55:12;;;;;;;1.43;1.10;;;;;;;;;;6215378;23;20409;-78
2023/08/31 10:57:40;;;;;;;1.20;1.10;;;;;;;;;;6215245;23;20489;-70
2023/08/31 11:00:08;;;;;;;2.27;1.40;;;;;;;;;;6215263;23;20412;-72
2023/08/31 11:02:36;;;;;;;4.13;1.47;;;;;;;;;;6215207;23;20488;-74
2023/08/31 11:05:07;;;;;;;1.27;1.17;;;;;;;;;;6215299;23;20405;-70
2023/08/31 11:07:35;;;;;;;2.70;1.20;;;;;;;;;;6224678;23;20463;-68
2023/08/31 11:10:09;;;;;;;2.33;1.30;;;;;;;;;;6215259;23;20463;-70
2023/08/31 11:12:36;;;;;;;2.90;1.20;;;;;;;;;;6215149;23;20415;-69
2023/08/31 11:15:04;;;;;;;0.90;0.90;;;;;;;;;;6215005;23;20927;-70
2023/08/31 11:17:32;;;;;;;1.90;0.90;;;;;;;;;;6215185;23;20424;-69
2023/08/31 11:19:59;;;;;;;2.20;1.00;;;;;;;;;;6215179;23;20409;-68
2023/08/31 11:22:27;;;;;;;2.00;0.90;;;;;;;;;;6215242;23;20437;-70
2023/08/31 11:24:54;;;;;;;1.17;0.90;;;;;;;;;;6215156;23;20524;-71
2023/08/31 11:27:21;;;;;;;1.60;0.97;;;;;;;;;;6215328;23;20504;-66
2023/08/31 11:29:48;;;;;;;1.93;1.37;;;;;;;;;;6215478;23;20489;-65
2023/08/31 11:32:15;;;;;;;1.53;1.00;;;;;;;;;;6217227;23;20830;-77
2023/08/31 11:34:42;;;;;;;0.93;0.90;;;;;;;;;;6226908;23;20443;-76
2023/08/31 11:37:10;;;;;;;2.40;1.10;;;;;;;;;;6217337;23;20405;-77
2023/08/31 11:39:39;;;;;;;1.03;0.93;;;;;;;;;;6217415;23;20411;-75
2023/08/31 11:42:06;;;;;;;0.93;0.80;;;;;;;;;;6216900;23;20409;-73
2023/08/31 11:44:33;;;;;;;1.30;1.20;;;;;;;;;;6216975;23;20488;-71
2023/08/31 11:47:00;;;;;;;1.67;1.10;;;;;;;;;;6217027;23;20496;-70
2023/08/31 11:49:28;;;;;;;2.43;1.50;;;;;;;;;;6216887;23;20778;-68
2023/08/31 11:51:55;;;;;;;1.87;1.30;;;;;;;;;;6216283;23;20523;-73
2023/08/31 11:54:26;;;;;;;1.20;1.10;;;;;;;;;;6215770;23;20519;-75
2023/08/31 11:56:54;;;;;;;1.80;0.90;;;;;;;;;;6226462;23;20776;-66
2023/08/31 11:59:22;;;;;;;2.43;1.20;;;;;;;;;;6216782;23;20761;-67
2023/08/31 12:01:50;;;;;;;1.10;1.00;;;;;;;;;;6216641;23;20411;-66
2023/08/31 12:04:18;;;;;;;1.30;1.20;;;;;;;;;;6216550;23;20909;-66
2023/08/31 12:06:48;;;;;;;2.53;1.27;;;;;;;;;;6215776;23;20405;-65
2023/08/31 12:09:15;;;;;;;1.57;1.47;;;;;;;;;;6226902;23;20751;-66
2023/08/31 12:11:42;;;;;;;1.30;1.20;;;;;;;;;;6216848;23;21009;-66
2023/08/31 12:14:21;;;;;;;1.10;1.00;;;;;;;;;;6216810;23;20405;-66
2023/08/31 12:16:48;;;;;;;1.40;0.87;;;;;;;;;;6226578;23;20393;-66
2023/08/31 12:19:15;;;;;;;1.00;0.90;;;;;;;;;;6216893;23;20409;-66
2023/08/31 12:21:43;;;;;;;1.00;0.90;;;;;;;;;;6216730;23;20488;-66
2023/08/31 12:24:10;;;;;;;1.63;1.10;;;;;;;;;;6216521;23;20405;-66
2023/08/31 12:26:37;;;;;;;1.63;1.10;;;;;;;;;;6216665;23;20800;-66
2023/08/31 12:29:05;;;;;;;0.93;0.83;;;;;;;;;;6216797;23;20495;-66
2023/08/31 12:31:33;;;;;;;1.10;1.00;;;;;;;;;;6216672;23;20524;-66
2023/08/31 12:34:04;;;;;;;1.13;1.03;;;;;;;;;;6216743;23;20492;-66
2023/08/31 12:36:31;;;;;;;1.60;1.10;;;;;;;;;;6226648;23;20729;-67
2023/08/31 12:39:01;;;;;;;2.07;1.00;;;;;;;;;;6216664;23;20492;-67
2023/08/31 12:41:28;;;;;;;1.43;1.00;;;;;;;;;;6216420;23;20413;-67
2023/08/31 12:43:54;;;;;;;3.63;1.10;;;;;;;;;;6216624;23;20406;-67
2023/08/31 12:46:21;;;;;;;2.30;1.17;;;;;;;;;;6216726;23;20405;-67
2023/08/31 12:48:50;;;;;;;1.10;1.00;;;;;;;;;;6216593;23;20496;-67
2023/08/31 12:51:17;;;;;;;1.40;1.13;;;;;;;;;;6216191;23;20761;-67
2023/08/31 12:53:44;;;;;;;1.50;1.23;;;;;;;;;;6214935;23;20433;-67
2023/08/31 12:56:11;;;;;;;4.63;1.57;;;;;;;;;;6214839;23;20405;-67
2023/08/31 12:58:39;;;;;;;1.20;1.10;;;;;;;;;;6214883;23;20485;-67
2023/08/31 13:01:05;;;;;;;1.10;1.10;;;;;;;;;;6214789;23;20496;-67
2023/08/31 13:03:32;;;;;;;1.47;1.37;;;;;;;;;;6215040;23;20444;-67
2023/08/31 13:06:01;;;;;;;1.97;1.10;;;;;;;;;;6214814;23;20531;-67
2023/08/31 13:08:28;;;;;;;1.70;1.10;;;;;;;;;;6214319;23;20463;-67
2023/08/31 13:10:56;;;;;;;1.40;1.30;;;;;;;;;;6214687;23;20428;-67
2023/08/31 13:13:23;;;;;;;2.07;1.97;;;;;;;;;;6214745;23;20787;-67
2023/08/31 13:15:50;;;;;;;1.93;1.40;;;;;;;;;;6214763;23;20778;-67
2023/08/31 13:18:17;;;;;;;2.27;2.17;;;;;;;;;;6214811;23;20459;-67
2023/08/31 13:20:50;;;;;;;1.50;1.40;;;;;;;;;;6215235;23;20452;-67
2023/08/31 13:23:18;;;;;;;1.43;1.33;;;;;;;;;;6224245;23;20402;-67
2023/08/31 13:25:45;;;;;;;2.07;1.10;;;;;;;;;;6214796;23;20405;-67
2023/08/31 13:28:12;;;;;;;1.43;1.33;;;;;;;;;;6214898;23;20440;-67
2023/08/31 13:30:39;;;;;;;2.60;1.30;;;;;;;;;;6214865;23;20959;-67
2023/08/31 13:33:06;;;;;;;1.20;1.10;;;;;;;;;;6214617;23;20519;-67
2023/08/31 13:35:33;;;;;;;1.20;1.10;;;;;;;;;;6214505;23;20436;-67
2023/08/31 13:38:00;;;;;;;1.30;1.20;;;;;;;;;;6214771;23;20492;-67
2023/08/31 13:40:28;;;;;;;1.33;1.00;;;;;;;;;;6214762;23;20517;-67
2023/08/31 13:42:56;;;;;;;1.13;1.00;;;;;;;;;;6214759;23;20440;-67
2023/08/31 13:45:23;;;;;;;1.40;1.27;;;;;;;;;;6214684;23;20405;-66
2023/08/31 13:47:50;;;;;;;1.30;1.20;;;;;;;;;;6214837;23;20492;-66
2023/08/31 13:50:17;;;;;;;0.90;0.90;;;;;;;;;;6214764;23;20492;-67
2023/08/31 13:52:44;;;;;;;1.10;1.00;;;;;;;;;;6173522;23;957384;-67
2023/08/31 13:55:11;;;;;;;3.63;1.07;;;;;;;;;;6225907;23;20231;-67
2023/08/31 13:57:39;;;;;;;1.10;1.00;;;;;;;;;;6215978;23;20488;-67
2023/08/31 14:00:09;;;;;;;2.07;1.40;;;;;;;;;;6215814;23;20497;-67
2023/08/31 14:02:37;;;;;;;1.20;1.10;;;;;;;;;;6215582;23;20405;-67
2023/08/31 14:05:04;;;;;;;1.30;1.20;;;;;;;;;;6215880;23;20416;-67
2023/08/31 14:07:31;;;;;;;1.83;1.00;;;;;;;;;;6215923;23;20409;-66
2023/08/31 14:09:58;;;;;;;1.87;1.00;;;;;;;;;;6215792;23;20467;-67
2023/08/31 14:12:25;;;;;;;2.33;1.17;;;;;;;;;;6215710;23;20520;-67
2023/08/31 14:14:54;;;;;;;1.23;1.13;;;;;;;;;;6215811;23;20760;-67
2023/08/31 14:17:21;;;;;;;1.47;1.10;;;;;;;;;;6215664;23;20447;-67
2023/08/31 14:19:49;;;;;;;2.07;1.23;;;;;;;;;;6215712;23;20432;-67
2023/08/31 14:22:16;;;;;;;1.20;1.10;;;;;;;;;;6215820;23;20405;-67
2023/08/31 14:24:43;;;;;;;1.73;1.20;;;;;;;;;;6215379;23;20972;-67
2023/08/31 14:27:10;;;;;;;3.93;1.60;;;;;;;;;;6215786;23;20492;-67
2023/08/31 14:29:38;;;;;;;1.10;1.00;;;;;;;;;;6215764;23;20481;-67
2023/08/31 14:32:06;;;;;;;1.20;1.03;;;;;;;;;;6215249;23;21041;-67
2023/08/31 14:34:33;;;;;;;1.27;1.17;;;;;;;;;;6215499;23;20429;-67
2023/08/31 14:37:00;;;;;;;1.83;0.90;;;;;;;;;;6215698;23;20409;-67
2023/08/31 14:39:29;;;;;;;2.67;0.90;;;;;;;;;;6215479;23;20459;-67
2023/08/31 14:41:56;;;;;;;2.10;0.80;;;;;;;;;;6215624;23;20604;-67
2023/08/31 14:44:23;;;;;;;1.20;1.10;;;;;;;;;;6215230;23;20413;-67
2023/08/31 14:46:50;;;;;;;1.10;1.00;;;;;;;;;;6215624;23;20433;-67